createdAt,value
2023-03-28T00:04:29.937Z,0
2023-03-28T00:09:46.337Z,0
2023-03-28T00:15:02.894Z,0
2023-03-28T00:20:19.299Z,0
2023-03-28T00:25:35.666Z,0
2023-03-28T00:30:52.039Z,0
2023-03-28T00:36:08.448Z,0
2023-03-28T00:41:24.778Z,0
2023-03-28T00:46:41.213Z,0
2023-03-28T00:51:57.567Z,0
2023-03-28T00:57:13.800Z,43
2023-03-28T01:02:30.174Z,4
2023-03-28T01:07:46.516Z,0
2023-03-28T01:13:02.892Z,0
2023-03-28T01:18:19.253Z,0
2023-03-28T01:23:35.658Z,0
2023-03-28T01:28:52.031Z,0
2023-03-28T01:34:08.425Z,0
2023-03-28T01:39:24.834Z,0
2023-03-28T01:44:41.190Z,0
2023-03-28T01:49:57.610Z,1
2023-03-28T01:55:13.977Z,1
2023-03-28T02:00:30.334Z,1
2023-03-28T02:05:46.745Z,1
2023-03-28T02:11:03.086Z,0
2023-03-28T02:16:19.494Z,0
2023-03-28T02:21:35.881Z,0
2023-03-28T02:26:52.214Z,4
2023-03-28T02:32:08.710Z,0
2023-03-28T02:37:25.030Z,0
2023-03-28T02:42:41.408Z,1
2023-03-28T02:47:57.882Z,1
2023-03-28T02:53:14.176Z,0
2023-03-28T02:58:30.574Z,1
2023-03-28T03:03:47.085Z,1
2023-03-28T03:09:03.353Z,1
2023-03-28T03:14:19.755Z,3
2023-03-28T03:19:36.143Z,1
2023-03-28T03:24:52.496Z,6
2023-03-28T03:30:08.934Z,26
2023-03-28T03:35:25.331Z,10
2023-03-28T03:40:41.722Z,3
2023-03-28T03:45:58.329Z,3
2023-03-28T03:51:14.483Z,5
2023-03-28T03:56:30.899Z,3
2023-03-28T04:01:47.316Z,22
2023-03-28T04:07:03.678Z,4
2023-03-28T04:12:20.150Z,26
2023-03-28T04:17:37.131Z,22
2023-03-28T04:22:53.526Z,16
2023-03-28T04:28:09.981Z,17
2023-03-28T04:33:26.363Z,7
2023-03-28T04:38:42.783Z,6
2023-03-28T04:43:59.201Z,6
2023-03-28T04:49:15.582Z,10
2023-03-28T04:54:32.021Z,11
2023-03-28T04:59:48.396Z,15
2023-03-28T05:05:04.811Z,13
2023-03-28T05:10:21.244Z,15
2023-03-28T05:15:37.635Z,14
2023-03-28T05:20:54.080Z,16
2023-03-28T05:26:10.486Z,15
2023-03-28T05:31:26.899Z,17
2023-03-28T05:36:43.318Z,17
2023-03-28T05:41:59.710Z,15
2023-03-28T05:47:16.135Z,13
2023-03-28T05:52:32.553Z,15
2023-03-28T05:57:48.990Z,10
2023-03-28T06:03:05.562Z,15
2023-03-28T06:08:21.854Z,21
2023-03-28T06:13:38.272Z,18
2023-03-28T06:19:01.365Z,16
2023-03-28T06:24:11.107Z,13
2023-03-28T06:29:27.902Z,18
2023-03-28T06:34:44.319Z,10
2023-03-28T06:40:00.710Z,11
2023-03-28T06:45:17.132Z,9
2023-03-28T06:50:33.502Z,11
2023-03-28T06:55:50.074Z,10
2023-03-28T07:01:06.362Z,10
2023-03-28T07:06:22.698Z,4
2023-03-28T07:11:39.073Z,5
2023-03-28T07:16:55.550Z,10
2023-03-28T07:22:11.880Z,4
2023-03-28T07:27:28.284Z,10
2023-03-28T07:32:52.798Z,3
2023-03-28T07:38:01.026Z,2
2023-03-28T07:43:17.414Z,2
2023-03-28T07:48:33.772Z,2
2023-03-28T07:53:50.177Z,5
2023-03-28T07:59:07.114Z,2
2023-03-28T08:04:23.447Z,2
2023-03-28T08:09:39.812Z,4
2023-03-28T08:14:56.193Z,2
2023-03-28T08:20:12.536Z,2
2023-03-28T08:25:28.882Z,2
2023-03-28T08:30:45.226Z,3
2023-03-28T08:36:01.542Z,4
2023-03-28T08:41:18.109Z,4
2023-03-28T08:46:34.265Z,2
2023-03-28T08:51:50.570Z,2
2023-03-28T08:57:19.392Z,1
2023-03-28T09:02:35.946Z,1
2023-03-28T09:07:52.090Z,0
2023-03-28T09:13:08.429Z,1
2023-03-28T09:18:24.724Z,0
2023-03-28T09:23:41.082Z,0
2023-03-28T09:28:57.371Z,0
2023-03-28T09:34:13.686Z,1
2023-03-28T09:39:30.072Z,0
2023-03-28T09:44:54.362Z,0
2023-03-28T09:50:12.437Z,2
2023-03-28T09:55:19.078Z,0
2023-03-28T10:00:35.374Z,0
2023-03-28T10:05:51.705Z,1
2023-03-28T10:11:08.002Z,0
2023-03-28T10:16:24.433Z,0
2023-03-28T10:21:40.658Z,0
2023-03-28T10:26:56.955Z,0
2023-03-28T10:32:13.284Z,0
2023-03-28T10:37:29.609Z,0
2023-03-28T10:42:45.878Z,0
2023-03-28T10:48:02.247Z,0
2023-03-28T10:53:18.467Z,0
2023-03-28T10:58:34.758Z,0
2023-03-28T11:03:51.189Z,0
2023-03-28T11:09:07.368Z,0
2023-03-28T11:14:23.673Z,0
2023-03-28T11:19:39.969Z,0
2023-03-28T11:24:56.232Z,13
2023-03-28T11:30:12.590Z,1
2023-03-28T11:35:28.809Z,0
2023-03-28T11:40:45.052Z,0
2023-03-28T11:46:01.402Z,0
2023-03-28T11:51:17.644Z,0
2023-03-28T11:56:33.914Z,0
2023-03-28T12:01:50.260Z,0
2023-03-28T12:07:06.516Z,1
2023-03-28T12:12:22.832Z,0
2023-03-28T12:17:39.250Z,1
2023-03-28T12:22:55.440Z,0
2023-03-28T12:28:11.773Z,0
2023-03-28T12:33:28.079Z,0
2023-03-28T12:38:44.414Z,2
2023-03-28T12:44:00.755Z,0
2023-03-28T12:49:17.016Z,0
2023-03-28T12:54:33.466Z,1
2023-03-28T12:59:49.770Z,0
2023-03-28T13:05:06.059Z,0
2023-03-28T13:10:22.395Z,0
2023-03-28T13:15:38.731Z,0
2023-03-28T13:20:55.033Z,1
2023-03-28T13:26:11.360Z,0
2023-03-28T13:31:27.687Z,2
2023-03-28T13:36:44.257Z,0
2023-03-28T13:42:00.569Z,0
2023-03-28T13:47:16.916Z,0
2023-03-28T13:52:33.287Z,0
2023-03-28T13:57:49.594Z,1
2023-03-28T14:03:06.013Z,0
2023-03-28T14:08:22.300Z,0
2023-03-28T14:13:38.625Z,1
2023-03-28T14:18:54.989Z,1
2023-03-28T14:24:11.344Z,2
2023-03-28T14:29:27.671Z,1
2023-03-28T14:34:44.049Z,2
2023-03-28T14:40:00.356Z,4
2023-03-28T14:45:16.690Z,2
2023-03-28T14:50:33.077Z,2
2023-03-28T14:55:49.663Z,4
2023-03-28T15:01:05.851Z,2
2023-03-28T15:06:22.110Z,3
2023-03-28T15:11:38.433Z,4
2023-03-28T15:16:54.806Z,2
2023-03-28T15:22:11.129Z,4
2023-03-28T15:27:27.485Z,3
2023-03-28T15:32:43.898Z,2
2023-03-28T15:38:00.170Z,4
2023-03-28T15:43:16.521Z,2
2023-03-28T15:48:32.873Z,2
2023-03-28T15:53:49.196Z,2
2023-03-28T15:59:05.571Z,1
2023-03-28T16:04:21.924Z,4
2023-03-28T16:09:38.244Z,2
2023-03-28T16:14:54.630Z,4
2023-03-28T16:20:10.944Z,5
2023-03-28T16:25:27.329Z,3
2023-03-28T16:30:43.686Z,2
2023-03-28T16:36:00.328Z,2
2023-03-28T16:41:16.387Z,3
2023-03-28T16:46:32.803Z,6
2023-03-28T16:51:49.078Z,5
2023-03-28T16:57:05.469Z,5
2023-03-28T17:02:21.842Z,4
2023-03-28T17:07:38.142Z,6
2023-03-28T17:12:54.503Z,9
2023-03-28T17:18:10.907Z,19
2023-03-28T17:23:27.281Z,15
2023-03-28T17:28:43.637Z,21
2023-03-28T17:34:00.026Z,22
2023-03-28T17:39:16.420Z,19
2023-03-28T17:44:32.752Z,8
2023-03-28T17:49:49.156Z,15
2023-03-28T17:55:05.565Z,40
2023-03-28T18:00:21.931Z,22
2023-03-28T18:05:38.340Z,35
2023-03-28T18:10:54.705Z,36
2023-03-28T18:16:11.166Z,22
2023-03-28T18:21:27.529Z,35
2023-03-28T18:26:43.926Z,33
2023-03-28T18:37:16.799Z,24
2023-03-28T18:42:33.093Z,22
2023-03-28T18:47:49.551Z,29
2023-03-28T18:53:05.893Z,24
2023-03-28T18:58:22.316Z,36
2023-03-28T19:03:38.824Z,48
2023-03-28T19:08:55.156Z,58
2023-03-28T19:14:11.588Z,29
2023-03-28T19:19:27.971Z,41
2023-03-28T19:24:45.118Z,49
2023-03-28T19:30:01.561Z,29
2023-03-28T19:35:17.924Z,38
2023-03-28T19:40:35.259Z,32
2023-03-28T19:45:51.672Z,17
2023-03-28T19:51:08.256Z,48
2023-03-28T19:56:24.685Z,35
2023-03-28T20:01:41.110Z,21
2023-03-28T20:06:57.452Z,21
2023-03-28T20:12:13.865Z,22
2023-03-28T20:17:29.990Z,25
2023-03-28T20:22:46.401Z,26
2023-03-28T20:28:02.791Z,17
2023-03-28T20:33:19.180Z,32
2023-03-28T20:38:35.621Z,31
2023-03-28T20:43:51.997Z,21
2023-03-28T20:49:08.455Z,30
2023-03-28T20:54:24.619Z,32
2023-03-28T20:59:41.031Z,27
2023-03-28T21:04:58.526Z,16
2023-03-28T21:10:14.853Z,14
2023-03-28T21:15:31.262Z,14
2023-03-28T21:20:47.643Z,29
2023-03-28T21:26:04.072Z,16
2023-03-28T21:31:20.477Z,24
2023-03-28T21:36:36.901Z,71
2023-03-28T21:41:53.396Z,17
2023-03-28T21:47:09.772Z,22
2023-03-28T21:52:26.203Z,20
2023-03-28T21:57:42.624Z,16
2023-03-28T22:02:59.097Z,19
2023-03-28T22:08:15.409Z,20
2023-03-28T22:13:31.834Z,14
2023-03-28T22:18:47.947Z,16
2023-03-28T22:24:04.377Z,16
2023-03-28T22:29:20.776Z,15
2023-03-28T22:34:37.157Z,14
2023-03-28T22:39:53.588Z,14
2023-03-28T22:45:09.971Z,14
2023-03-28T22:50:26.411Z,12
2023-03-28T22:55:42.806Z,15
2023-03-28T23:00:59.392Z,13
2023-03-28T23:06:15.609Z,17
2023-03-28T23:11:32.030Z,28
2023-03-28T23:16:48.462Z,29
2023-03-28T23:22:04.938Z,29
2023-03-28T23:27:21.300Z,29
2023-03-28T23:32:37.905Z,21
2023-03-28T23:37:54.158Z,26
2023-03-28T23:43:10.541Z,22
2023-03-28T23:48:27.552Z,25
2023-03-28T23:53:43.972Z,26
2023-03-28T23:59:00.918Z,19
